Palisades, Washington
Current Conditions -  °F | °C
As of 5:55 AM on Friday 24 Oct 2014 (Local Time) from KEAT Reporting Station
Clear Clear  
Wind Chill: 42°   Ceiling: Unl
Heat Index: 46°   Visibility: 10mi
Dew Point: 37°   Wind: 8mph
Humidity: 71%   Direction: 350°N
Pressure: 30.04"   Gusts: NA
Location:  47.42°N, 119.92°W
Report Text: KEAT 241255Z AUTO 35007KT 10SM CLR 08/03 A3004 RMK AO2 SLP174 T00780028
Loading
Personal Weather Stations






























Interactive Weather Map
Tropical Storm Tracking
New forecast layout! Learn more

10-Day Weather Forecast

Advertisements
Track Severe Weather on mobile